createdAt,value
2022-08-07T00:00:36.258Z,16.67
2022-08-07T00:03:08.726Z,16.67
2022-08-07T00:05:36.283Z,16.64
2022-08-07T00:08:05.218Z,16.64
2022-08-07T00:10:34.908Z,16.70
2022-08-07T00:13:23.523Z,16.72
2022-08-07T00:15:52.558Z,16.69
2022-08-07T00:18:24.398Z,16.64
2022-08-07T00:20:57.495Z,16.69
2022-08-07T00:23:30.210Z,16.73
2022-08-07T00:26:00.237Z,16.69
2022-08-07T00:28:33.572Z,16.74
2022-08-07T00:31:06.115Z,16.73
2022-08-07T00:33:39.795Z,16.72
2022-08-07T00:36:08.301Z,16.71
2022-08-07T00:38:36.768Z,16.65
2022-08-07T00:41:10.004Z,16.71
2022-08-07T00:43:58.951Z,16.61
2022-08-07T00:46:28.042Z,16.59
2022-08-07T00:48:54.555Z,16.61
2022-08-07T00:51:21.553Z,16.67
2022-08-07T00:53:50.730Z,16.56
2022-08-07T00:56:30.283Z,16.49
2022-08-07T00:58:57.571Z,16.48
2022-08-07T01:01:24.349Z,16.47
2022-08-07T01:03:56.119Z,16.37
2022-08-07T01:06:29.591Z,16.43
2022-08-07T01:08:58.643Z,16.48
2022-08-07T01:12:28.076Z,16.57
2022-08-07T01:14:17.132Z,16.53
2022-08-07T01:16:48.889Z,16.49
2022-08-07T01:19:18.992Z,16.46
2022-08-07T01:21:48.333Z,16.53
2022-08-07T01:24:18.776Z,16.46
2022-08-07T01:26:52.187Z,16.41
2022-08-07T01:29:20.136Z,16.40
2022-08-07T01:31:48.846Z,16.45
2022-08-07T01:34:15.650Z,16.39
2022-08-07T01:36:44.112Z,16.43
2022-08-07T01:39:11.409Z,16.44
2022-08-07T01:41:40.802Z,16.45
2022-08-07T01:44:26.131Z,16.39
2022-08-07T01:46:53.335Z,16.37
2022-08-07T01:49:22.278Z,16.45
2022-08-07T01:52:03.316Z,16.41
2022-08-07T01:54:37.187Z,16.42
2022-08-07T01:57:20.428Z,16.35
2022-08-07T02:00:03.207Z,16.34
2022-08-07T02:03:11.962Z,16.36
2022-08-07T02:05:47.908Z,16.38
2022-08-07T02:08:25.492Z,16.35
2022-08-07T02:10:58.007Z,16.36
2022-08-07T02:13:57.732Z,16.34
2022-08-07T02:16:18.160Z,16.42
2022-08-07T02:18:51.110Z,16.39
2022-08-07T02:21:19.761Z,16.36
2022-08-07T02:23:47.842Z,16.39
2022-08-07T02:26:32.654Z,16.33
2022-08-07T02:29:03.414Z,16.38
2022-08-07T02:31:32.788Z,16.30
2022-08-07T02:34:03.612Z,16.30
2022-08-07T02:36:39.426Z,16.33
2022-08-07T02:39:09.327Z,16.33
2022-08-07T02:41:50.808Z,16.26
2022-08-07T02:44:23.885Z,16.25
2022-08-07T02:46:56.283Z,16.24
2022-08-07T02:49:28.887Z,16.32
2022-08-07T02:52:17.185Z,16.30
2022-08-07T02:54:50.588Z,16.27
2022-08-07T02:57:22.253Z,16.27
2022-08-07T02:59:55.174Z,16.24
2022-08-07T03:02:28.181Z,16.20
2022-08-07T03:04:55.631Z,16.26
2022-08-07T03:08:05.368Z,16.20
2022-08-07T03:10:10.149Z,16.19
2022-08-07T03:12:41.916Z,16.20
2022-08-07T03:15:10.827Z,16.23
2022-08-07T03:17:53.587Z,16.23
2022-08-07T03:20:23.996Z,16.14
2022-08-07T03:22:52.708Z,16.18
2022-08-07T03:25:21.350Z,16.13
2022-08-07T03:28:09.174Z,16.20
2022-08-07T03:30:37.474Z,16.14
2022-08-07T03:33:08.017Z,16.13
2022-08-07T03:35:50.015Z,16.11
2022-08-07T03:38:20.901Z,16.20
2022-08-07T03:40:57.234Z,16.19
2022-08-07T03:43:26.484Z,16.16
2022-08-07T03:45:53.729Z,16.14
2022-08-07T03:48:20.866Z,16.15
2022-08-07T03:50:52.106Z,16.09
2022-08-07T03:54:05.771Z,16.05
2022-08-07T03:56:10.639Z,16.07
2022-08-07T03:59:08.664Z,16.06
2022-08-07T04:01:28.835Z,16.03
2022-08-07T04:03:55.628Z,15.98
2022-08-07T04:06:38.024Z,15.99
2022-08-07T04:09:05.863Z,15.97
2022-08-07T04:12:25.501Z,16.01
2022-08-07T04:14:37.631Z,16.02
2022-08-07T04:17:20.149Z,16.12
2022-08-07T04:19:52.011Z,16.08
2022-08-07T04:22:23.507Z,16.10
2022-08-07T04:24:55.949Z,15.97
2022-08-07T04:27:25.634Z,16.01
2022-08-07T04:30:01.963Z,15.96
2022-08-07T04:32:34.475Z,16.02
2022-08-07T04:35:05.781Z,16.09
2022-08-07T04:38:01.146Z,16.06
2022-08-07T04:40:21.192Z,16.02
2022-08-07T04:42:52.336Z,16.07
2022-08-07T04:45:44.478Z,16.04
2022-08-07T04:48:44.831Z,16.12
2022-08-07T04:51:49.304Z,16.08
2022-08-07T04:54:30.027Z,16.13
2022-08-07T04:58:11.765Z,16.05
2022-08-07T05:00:18.663Z,16.13
2022-08-07T05:02:57.070Z,16.26
2022-08-07T05:05:53.113Z,16.23
2022-08-07T05:09:00.169Z,16.17
2022-08-07T05:11:57.560Z,16.23
2022-08-07T05:14:55.527Z,16.22
2022-08-07T05:17:16.199Z,16.28
2022-08-07T05:20:05.360Z,16.29
2022-08-07T05:22:38.973Z,16.32
2022-08-07T05:25:08.761Z,16.30
2022-08-07T05:28:15.928Z,16.33
2022-08-07T05:30:32.614Z,16.37
2022-08-07T05:33:02.583Z,16.36
2022-08-07T05:35:33.457Z,16.30
2022-08-07T05:38:09.025Z,16.23
2022-08-07T05:40:51.444Z,16.35
2022-08-07T05:43:56.458Z,16.30
2022-08-07T05:46:06.898Z,16.37
2022-08-07T05:48:34.258Z,16.44
2022-08-07T05:51:01.910Z,16.57
2022-08-07T05:54:12.002Z,16.65
2022-08-07T05:56:30.023Z,16.57
2022-08-07T05:58:58.992Z,16.61
2022-08-07T06:01:27.561Z,16.55
2022-08-07T06:04:04.644Z,16.67
2022-08-07T06:06:33.545Z,16.80
2022-08-07T06:09:01.256Z,16.86
2022-08-07T06:11:33.466Z,16.78
2022-08-07T06:14:13.032Z,16.99
2022-08-07T06:16:50.292Z,17.02
2022-08-07T06:19:47.979Z,17.10
2022-08-07T06:22:14.890Z,17.04
2022-08-07T06:24:57.708Z,17.04
2022-08-07T06:27:59.819Z,17.24
2022-08-07T06:30:32.322Z,17.36
2022-08-07T06:32:59.390Z,17.63
2022-08-07T06:35:30.618Z,17.57
2022-08-07T06:38:19.886Z,17.88
2022-08-07T06:40:53.227Z,18.01
2022-08-07T06:43:23.625Z,18.17
2022-08-07T06:45:50.921Z,18.28
2022-08-07T06:48:25.163Z,18.32
2022-08-07T06:50:54.912Z,18.31
2022-08-07T06:55:29.352Z,18.54
2022-08-07T06:56:15.434Z,18.97
2022-08-07T07:00:11.592Z,19.14
2022-08-07T07:01:44.026Z,19.07
2022-08-07T07:04:28.122Z,19.07
2022-08-07T07:07:01.869Z,19.45
2022-08-07T07:09:31.206Z,19.73
2022-08-07T07:12:24.775Z,19.52
2022-08-07T07:15:00.534Z,19.85
2022-08-07T07:18:12.184Z,20.02
2022-08-07T07:21:19.518Z,19.90
2022-08-07T07:24:08.229Z,20.10
2022-08-07T07:26:37.728Z,19.96
2022-08-07T07:29:38.674Z,20.15
2022-08-07T07:31:59.306Z,19.98
2022-08-07T07:34:31.917Z,20.14
2022-08-07T07:37:14.618Z,20.41
2022-08-07T07:39:55.258Z,20.33
2022-08-07T07:42:29.979Z,20.45
2022-08-07T07:45:01.993Z,21.13
2022-08-07T07:47:30.330Z,20.28
2022-08-07T07:50:33.285Z,20.61
2022-08-07T07:53:20.447Z,20.81
2022-08-07T07:55:54.824Z,21.74
2022-08-07T07:58:25.433Z,21.44
2022-08-07T08:00:55.800Z,21.37
2022-08-07T08:04:09.299Z,21.50
2022-08-07T08:06:13.118Z,21.46
2022-08-07T08:08:41.830Z,21.73
2022-08-07T08:11:16.049Z,22.19
2022-08-07T08:13:54.331Z,22.21
2022-08-07T08:16:26.332Z,22.41
2022-08-07T08:18:58.361Z,22.11
2022-08-07T08:22:00.451Z,22.43
2022-08-07T08:24:57.348Z,21.75
2022-08-07T08:27:44.048Z,22.49
2022-08-07T08:30:24.909Z,22.86
2022-08-07T08:32:58.861Z,22.66
2022-08-07T08:35:28.908Z,23.14
2022-08-07T08:38:08.229Z,23.71
2022-08-07T08:40:48.110Z,23.55
2022-08-07T08:43:42.847Z,25.02
2022-08-07T08:46:25.597Z,25.16
2022-08-07T08:49:33.514Z,28.27
2022-08-07T08:52:22.484Z,28.66
2022-08-07T08:54:58.108Z,28.55
2022-08-07T08:57:39.463Z,29.55
2022-08-07T09:00:10.521Z,27.36
2022-08-07T09:03:00.960Z,25.89
2022-08-07T09:05:53.522Z,25.36
2022-08-07T09:08:55.557Z,24.97
2022-08-07T09:11:43.798Z,25.85
2022-08-07T09:14:58.815Z,25.20
2022-08-07T09:17:59.596Z,26.82
2022-08-07T09:21:57.811Z,26.05
2022-08-07T09:24:58.995Z,26.48
2022-08-07T09:28:02.886Z,28.43
2022-08-07T09:30:56.716Z,27.43
2022-08-07T09:33:57.044Z,27.15
2022-08-07T09:36:43.004Z,28.53
2022-08-07T09:39:52.832Z,29.77
2022-08-07T09:42:22.960Z,30.76
2022-08-07T09:47:25.279Z,29.80
2022-08-07T09:48:14.471Z,31.34
2022-08-07T09:51:20.233Z,30.51
2022-08-07T09:54:03.402Z,30.44
2022-08-07T09:57:06.973Z,30.27
2022-08-07T10:00:00.284Z,31.15
2022-08-07T10:02:55.020Z,30.10
2022-08-07T10:06:01.305Z,30.57
2022-08-07T10:08:56.693Z,29.64
2022-08-07T10:12:01.963Z,29.97
2022-08-07T10:14:54.220Z,30.38
2022-08-07T10:18:01.538Z,30.65
2022-08-07T10:20:44.420Z,29.05
2022-08-07T10:24:04.734Z,29.72
2022-08-07T10:26:53.018Z,29.19
2022-08-07T10:29:45.921Z,30.23
2022-08-07T10:32:36.540Z,30.81
2022-08-07T10:35:27.261Z,30.24
2022-08-07T10:38:48.394Z,30.81
2022-08-07T10:41:47.325Z,29.82
2022-08-07T10:44:38.686Z,29.17
2022-08-07T10:47:17.778Z,31.10
2022-08-07T10:49:52.895Z,30.63
2022-08-07T10:52:33.966Z,30.15
2022-08-07T10:55:37.659Z,29.66
2022-08-07T10:58:33.184Z,28.76
2022-08-07T11:01:35.483Z,28.43
2022-08-07T11:04:34.586Z,30.44
2022-08-07T11:07:58.551Z,28.86
2022-08-07T11:11:01.792Z,31.20
2022-08-07T11:14:42.545Z,29.93
2022-08-07T11:17:07.410Z,29.16
2022-08-07T11:19:44.602Z,29.98
2022-08-07T11:22:26.642Z,30.41
2022-08-07T11:25:16.437Z,29.95
2022-08-07T11:28:01.349Z,29.64
2022-08-07T11:30:48.504Z,30.79
2022-08-07T11:33:53.601Z,29.43
2022-08-07T11:36:33.694Z,29.75
2022-08-07T11:39:19.451Z,29.36
2022-08-07T11:42:03.057Z,29.26
2022-08-07T11:44:52.683Z,29.39
2022-08-07T11:48:06.115Z,30.33
2022-08-07T11:51:40.668Z,29.39
2022-08-07T11:54:17.824Z,27.78
2022-08-07T11:56:58.516Z,27.83
2022-08-07T12:34:29.926Z,27.59
2022-08-07T12:36:58.811Z,27.00
2022-08-07T12:39:44.334Z,27.43
2022-08-07T12:42:27.145Z,27.59
2022-08-07T12:44:56.154Z,27.04
2022-08-07T12:47:37.929Z,26.50
2022-08-07T12:50:38.589Z,27.05
2022-08-07T12:53:22.374Z,26.91
2022-08-07T12:56:12.437Z,26.13
2022-08-07T12:58:46.785Z,25.80
2022-08-07T13:01:28.196Z,26.13
2022-08-07T13:04:31.838Z,26.64
2022-08-07T13:08:12.065Z,28.18
2022-08-07T13:10:59.390Z,27.88
2022-08-07T13:13:46.645Z,28.83
2022-08-07T13:16:31.208Z,28.33
2022-08-07T13:19:35.158Z,27.46
2022-08-07T13:22:30.846Z,26.36
2022-08-07T13:25:06.872Z,26.04
2022-08-07T13:28:11.433Z,26.66
2022-08-07T13:30:40.811Z,26.92
2022-08-07T13:34:30.946Z,26.26
2022-08-07T13:36:40.559Z,26.30
2022-08-07T13:39:12.990Z,26.45
2022-08-07T13:41:56.901Z,26.87
2022-08-07T13:44:26.852Z,26.03
2022-08-07T13:47:04.730Z,25.80
2022-08-07T13:50:33.174Z,25.61
2022-08-07T13:52:39.589Z,25.84
2022-08-07T13:55:19.619Z,26.24
2022-08-07T13:58:28.133Z,26.85
2022-08-07T14:01:09.355Z,26.58
2022-08-07T14:04:09.582Z,26.14
2022-08-07T14:06:36.974Z,25.81
2022-08-07T14:09:07.149Z,26.24
2022-08-07T14:11:53.630Z,25.29
2022-08-07T14:14:31.461Z,24.91
2022-08-07T14:17:13.201Z,25.06
2022-08-07T14:20:43.566Z,25.54
2022-08-07T14:22:45.637Z,25.44
2022-08-07T14:25:16.271Z,25.34
2022-08-07T14:28:12.930Z,25.37
2022-08-07T14:30:40.546Z,25.46
2022-08-07T14:33:08.470Z,25.47
2022-08-07T14:35:47.491Z,25.67
2022-08-07T14:57:11.686Z,24.49
2022-08-07T15:02:37.322Z,24.94
2022-08-07T15:07:56.513Z,25.07
2022-08-07T15:10:27.218Z,25.03
2022-08-07T15:15:53.617Z,24.63
2022-08-07T15:18:34.889Z,24.77
2022-08-07T15:21:58.576Z,24.68
2022-08-07T15:26:59.508Z,24.20
2022-08-07T15:30:10.226Z,24.03
2022-08-07T15:32:39.611Z,23.95
2022-08-07T15:43:53.558Z,23.60
2022-08-07T15:46:31.902Z,23.57
2022-08-07T15:49:12.780Z,23.37
2022-08-07T15:54:39.446Z,23.22
2022-08-07T15:57:27.945Z,23.21
2022-08-07T16:00:04.390Z,22.91
2022-08-07T16:02:41.218Z,22.95
2022-08-07T16:05:15.152Z,22.82
2022-08-07T16:08:30.742Z,22.96
2022-08-07T16:11:28.706Z,23.16
2022-08-07T16:14:07.062Z,23.19
2022-08-07T16:16:49.691Z,23.44
2022-08-07T16:19:41.781Z,23.55
2022-08-07T16:22:36.184Z,23.54
2022-08-07T16:25:54.649Z,23.39
2022-08-07T16:29:18.898Z,23.64
2022-08-07T16:31:57.430Z,23.50
2022-08-07T16:34:48.353Z,23.33
2022-08-07T16:38:03.235Z,23.32
2022-08-07T16:40:30.945Z,23.44
2022-08-07T16:43:15.570Z,23.27
2022-08-07T16:46:21.213Z,23.22
2022-08-07T16:50:27.449Z,23.10
2022-08-07T16:52:51.513Z,23.12
2022-08-07T16:55:08.377Z,22.93
2022-08-07T16:58:03.699Z,22.91
2022-08-07T17:00:41.751Z,22.98
2022-08-07T17:03:11.439Z,22.82
2022-08-07T17:06:29.130Z,22.82
2022-08-07T17:09:15.775Z,22.76
2022-08-07T17:12:03.912Z,22.63
2022-08-07T17:14:57.716Z,22.57
2022-08-07T17:17:49.102Z,22.59
2022-08-07T17:20:41.725Z,22.43
2022-08-07T17:23:32.395Z,22.42
2022-08-07T17:26:50.142Z,22.28
2022-08-07T17:30:15.858Z,22.19
2022-08-07T17:34:10.285Z,22.07
2022-08-07T17:35:57.647Z,21.98
2022-08-07T17:38:33.575Z,21.99
2022-08-07T17:42:04.893Z,21.96
2022-08-07T17:44:42.793Z,21.86
2022-08-07T17:47:42.059Z,21.65
2022-08-07T17:50:22.592Z,21.84
2022-08-07T17:53:59.574Z,21.76
2022-08-07T17:56:25.961Z,21.60
2022-08-07T17:58:56.864Z,21.50
2022-08-07T18:01:40.658Z,21.54
2022-08-07T18:04:16.251Z,21.34
2022-08-07T18:07:18.994Z,21.36
2022-08-07T18:10:04.739Z,21.10
2022-08-07T18:12:42.001Z,21.13
2022-08-07T18:15:15.816Z,21.03
2022-08-07T18:18:46.176Z,20.88
2022-08-07T18:21:07.391Z,20.76
2022-08-07T18:23:58.458Z,20.64
2022-08-07T18:26:51.044Z,20.56
2022-08-07T18:30:05.977Z,20.55
2022-08-07T18:32:41.737Z,20.50
2022-08-07T18:35:16.020Z,20.45
2022-08-07T18:38:56.528Z,20.32
2022-08-07T18:41:20.928Z,20.20
2022-08-07T18:44:03.573Z,20.27
2022-08-07T18:46:36.494Z,20.17
2022-08-07T18:50:33.149Z,20.08
2022-08-07T18:52:55.091Z,20.02
2022-08-07T18:55:41.770Z,19.91
2022-08-07T18:58:31.376Z,19.86
2022-08-07T19:01:03.829Z,19.84
2022-08-07T19:03:52.567Z,19.83
2022-08-07T19:06:48.186Z,19.74
2022-08-07T19:09:56.353Z,19.66
2022-08-07T19:12:53.484Z,19.55
2022-08-07T19:16:04.558Z,19.59
2022-08-07T19:18:34.513Z,19.61
2022-08-07T19:21:43.932Z,19.60
2022-08-07T19:24:30.980Z,19.62
2022-08-07T19:28:29.854Z,19.61
2022-08-07T19:31:01.229Z,19.63
2022-08-07T19:32:46.290Z,19.60
2022-08-07T19:35:25.746Z,19.60
2022-08-07T19:37:58.748Z,19.45
2022-08-07T19:40:31.370Z,19.39
2022-08-07T19:43:02.275Z,19.43
2022-08-07T19:46:05.615Z,19.38
2022-08-07T19:48:24.189Z,19.38
2022-08-07T19:50:53.679Z,19.37
2022-08-07T19:54:44.363Z,19.33
2022-08-07T19:57:56.881Z,19.41
2022-08-07T19:58:58.232Z,19.33
2022-08-07T20:01:52.877Z,19.32
2022-08-07T20:04:31.857Z,19.32
2022-08-07T20:07:09.242Z,19.24
2022-08-07T20:10:36.214Z,19.17
2022-08-07T20:12:43.252Z,19.21
2022-08-07T20:15:21.882Z,19.11
2022-08-07T20:18:01.271Z,19.01
2022-08-07T20:20:31.896Z,18.89
2022-08-07T20:23:23.087Z,18.87
2022-08-07T20:25:55.849Z,18.77
2022-08-07T20:28:29.680Z,18.62
2022-08-07T20:30:58.234Z,18.60
2022-08-07T20:33:37.581Z,18.50
2022-08-07T20:36:07.722Z,18.43
2022-08-07T20:38:35.862Z,18.28
2022-08-07T20:41:40.761Z,18.19
2022-08-07T20:44:12.857Z,18.13
2022-08-07T20:46:43.909Z,18.06
2022-08-07T20:49:58.400Z,17.92
2022-08-07T20:52:09.331Z,17.84
2022-08-07T20:54:53.251Z,17.84
2022-08-07T20:57:47.544Z,17.80
2022-08-07T21:00:46.465Z,17.76
2022-08-07T21:03:37.735Z,17.67
2022-08-07T21:06:21.837Z,17.63
2022-08-07T21:09:03.485Z,17.55
2022-08-07T21:11:50.411Z,17.55
2022-08-07T21:14:31.993Z,17.33
2022-08-07T21:18:02.919Z,17.20
2022-08-07T21:20:04.424Z,17.01
2022-08-07T21:22:39.485Z,16.84
2022-08-07T21:25:39.096Z,16.71
2022-08-07T21:28:09.095Z,16.66
2022-08-07T21:30:43.385Z,16.74
2022-08-07T21:33:29.384Z,16.67
2022-08-07T21:36:32.010Z,16.62
2022-08-07T21:39:47.889Z,16.77
2022-08-07T21:45:42.113Z,16.89
2022-08-07T21:48:28.034Z,16.84
2022-08-07T21:50:59.382Z,16.80
2022-08-07T21:53:32.606Z,16.63
2022-08-07T21:56:36.148Z,16.54
2022-08-07T21:59:21.407Z,16.44
2022-08-07T22:02:10.825Z,16.38
2022-08-07T22:04:51.300Z,16.30
2022-08-07T22:07:42.857Z,16.20
2022-08-07T22:10:18.241Z,16.10
2022-08-07T22:12:45.239Z,16.01
2022-08-07T22:16:39.713Z,15.83
2022-08-07T22:18:24.606Z,15.74
2022-08-07T22:21:06.262Z,15.75
2022-08-07T22:23:57.350Z,15.68
2022-08-07T22:26:35.519Z,15.68
2022-08-07T22:29:13.966Z,15.45
2022-08-07T22:31:59.905Z,15.36
2022-08-07T22:34:49.793Z,15.36
2022-08-07T22:38:02.931Z,15.35
2022-08-07T22:40:50.049Z,15.41
2022-08-07T22:43:41.810Z,15.57
2022-08-07T22:47:06.440Z,15.58
2022-08-07T22:49:37.966Z,15.61
2022-08-07T22:52:36.925Z,15.60
2022-08-07T22:55:17.546Z,15.53
2022-08-07T22:58:04.455Z,15.46
2022-08-07T23:00:46.001Z,15.54
2022-08-07T23:03:58.457Z,15.54
2022-08-07T23:06:34.848Z,15.44
2022-08-07T23:10:03.889Z,15.28
2022-08-07T23:12:39.192Z,15.25
2022-08-07T23:16:06.089Z,15.20
2022-08-07T23:19:11.253Z,15.27
2022-08-07T23:21:52.129Z,15.23
2022-08-07T23:24:45.615Z,15.26
2022-08-07T23:27:34.509Z,15.26
2022-08-07T23:30:37.524Z,15.31
2022-08-07T23:34:35.254Z,15.31
2022-08-07T23:37:19.573Z,15.29
2022-08-07T23:39:42.599Z,15.30
2022-08-07T23:42:30.420Z,15.27
2022-08-07T23:45:33.207Z,15.19
2022-08-07T23:48:31.553Z,15.02
2022-08-07T23:53:00.113Z,14.85
2022-08-07T23:54:28.639Z,14.73
2022-08-07T23:57:34.695Z,14.70
